Portada
METAR-TAF:

METAR-TAF

Aeropuertos :

Aeropuerto de Kimmirut

Kimmirut, Nunavut, Canadá

latitud: 62-51N, longitud: 069-53W, altitud: 53 m

Observación

El informe se hizo hace 34 minutos, a las 15:00 UTC
Viento 8 kt del oeste-noroeste
Temperatura -11°C
Humedad 92%
Presión 993 hPa
Visibilidad: 24.1 km
Cielo nuboso a una altura de 2100 ft
poca nieve

METAR: CYLC 181500Z 29008KT 15SM -SN BKN021 M11/M12 A2933 RMK SC7 SLP938

Hora: 10:34 (15:34 UTC)


TAF: falta

Observaciones y pronósticos meteorológicos de más de 4000 aeropuertos (mensajes METAR y TAF).

Los puntos amarillos y rojos representan las estaciones disponibles.

Ponga el ratón en el punto deseado para ver el nombre de la estación.

Haga clic para ver las observaciones y los pronósticos meteorológicos.

Para cambiar el mapa : haga clic en los botones verdes con una cruz de color negro para hacer un zoom, en el botón verde con un guión para alejar o en las flechas verdes para mapas adyacentes.


METAR-TAF: